sensor_id;sensor_type;location;lat;lon;timestamp;P1;durP1;ratioP1;P2;durP2;ratioP2
56680;SDS011;42558;52.388;13.390;2022-07-29T00:02:26;11.02;;;3.80;;
56680;SDS011;42558;52.388;13.390;2022-07-29T00:04:54;11.40;;;4.18;;
56680;SDS011;42558;52.388;13.390;2022-07-29T00:07:21;8.17;;;3.99;;
56680;SDS011;42558;52.388;13.390;2022-07-29T00:09:48;11.40;;;4.94;;
56680;SDS011;42558;52.388;13.390;2022-07-29T00:12:22;9.88;;;3.99;;
56680;SDS011;42558;52.388;13.390;2022-07-29T00:14:55;9.69;;;4.75;;
56680;SDS011;42558;52.388;13.390;2022-07-29T00:17:24;11.97;;;4.37;;
56680;SDS011;42558;52.388;13.390;2022-07-29T00:19:51;10.45;;;4.75;;
56680;SDS011;42558;52.388;13.390;2022-07-29T00:22:18;10.45;;;5.32;;
56680;SDS011;42558;52.388;13.390;2022-07-29T00:24:49;11.02;;;5.13;;
56680;SDS011;42558;52.388;13.390;2022-07-29T00:27:17;11.59;;;5.32;;
56680;SDS011;42558;52.388;13.390;2022-07-29T00:29:44;12.92;;;5.32;;
56680;SDS011;42558;52.388;13.390;2022-07-29T00:32:11;13.87;;;5.51;;
56680;SDS011;42558;52.388;13.390;2022-07-29T00:34:38;11.59;;;5.70;;
56680;SDS011;42558;52.388;13.390;2022-07-29T00:37:25;11.21;;;4.75;;
56680;SDS011;42558;52.388;13.390;2022-07-29T00:39:52;8.55;;;4.56;;
56680;SDS011;42558;52.388;13.390;2022-07-29T00:42:18;11.59;;;4.56;;
56680;SDS011;42558;52.388;13.390;2022-07-29T00:44:46;12.54;;;5.32;;
56680;SDS011;42558;52.388;13.390;2022-07-29T00:47:13;11.21;;;5.51;;
56680;SDS011;42558;52.388;13.390;2022-07-29T00:49:41;11.78;;;4.75;;
56680;SDS011;42558;52.388;13.390;2022-07-29T00:52:10;11.78;;;5.32;;
56680;SDS011;42558;52.388;13.390;2022-07-29T00:54:42;12.16;;;5.89;;
56680;SDS011;42558;52.388;13.390;2022-07-29T00:57:11;12.54;;;4.94;;
56680;SDS011;42558;52.388;13.390;2022-07-29T00:59:39;16.72;;;6.46;;
56680;SDS011;42558;52.388;13.390;2022-07-29T01:02:06;15.20;;;5.32;;
56680;SDS011;42558;52.388;13.390;2022-07-29T01:04:33;12.16;;;5.13;;
56680;SDS011;42558;52.388;13.390;2022-07-29T01:07:01;10.45;;;5.70;;
56680;SDS011;42558;52.388;13.390;2022-07-29T01:09:31;13.49;;;5.89;;
56680;SDS011;42558;52.388;13.390;2022-07-29T01:12:22;11.21;;;5.51;;
56680;SDS011;42558;52.388;13.390;2022-07-29T01:14:55;14.06;;;5.32;;
56680;SDS011;42558;52.388;13.390;2022-07-29T01:17:39;10.07;;;4.94;;
56680;SDS011;42558;52.388;13.390;2022-07-29T01:24:01;11.97;;;5.51;;
56680;SDS011;42558;52.388;13.390;2022-07-29T01:29:35;14.63;;;5.51;;
56680;SDS011;42558;52.388;13.390;2022-07-29T01:32:22;21.66;;;6.27;;
56680;SDS011;42558;52.388;13.390;2022-07-29T01:37:37;12.54;;;5.32;;
56680;SDS011;42558;52.388;13.390;2022-07-29T01:40:22;12.54;;;5.51;;
56680;SDS011;42558;52.388;13.390;2022-07-29T01:42:56;12.35;;;5.70;;
56680;SDS011;42558;52.388;13.390;2022-07-29T01:45:34;14.25;;;5.13;;
56680;SDS011;42558;52.388;13.390;2022-07-29T01:53:54;13.11;;;5.70;;
56680;SDS011;42558;52.388;13.390;2022-07-29T01:56:28;12.16;;;5.89;;
56680;SDS011;42558;52.388;13.390;2022-07-29T01:59:01;13.30;;;6.46;;
56680;SDS011;42558;52.388;13.390;2022-07-29T02:01:32;12.92;;;5.13;;
56680;SDS011;42558;52.388;13.390;2022-07-29T02:04:06;11.40;;;5.70;;
56680;SDS011;42558;52.388;13.390;2022-07-29T02:06:54;13.68;;;6.27;;
56680;SDS011;42558;52.388;13.390;2022-07-29T02:09:25;14.44;;;6.08;;
56680;SDS011;42558;52.388;13.390;2022-07-29T02:11:54;11.59;;;5.32;;
56680;SDS011;42558;52.388;13.390;2022-07-29T02:14:24;14.63;;;6.46;;
56680;SDS011;42558;52.388;13.390;2022-07-29T02:16:55;14.06;;;6.08;;
56680;SDS011;42558;52.388;13.390;2022-07-29T02:19:27;13.68;;;7.22;;
56680;SDS011;42558;52.388;13.390;2022-07-29T02:21:58;11.40;;;6.27;;
56680;SDS011;42558;52.388;13.390;2022-07-29T02:24:29;15.58;;;5.51;;
56680;SDS011;42558;52.388;13.390;2022-07-29T02:26:59;17.86;;;6.27;;
56680;SDS011;42558;52.388;13.390;2022-07-29T02:29:30;15.20;;;5.89;;
56680;SDS011;42558;52.388;13.390;2022-07-29T02:32:00;14.06;;;6.84;;
56680;SDS011;42558;52.388;13.390;2022-07-29T02:34:29;13.68;;;6.46;;
56680;SDS011;42558;52.388;13.390;2022-07-29T02:36:58;11.21;;;5.51;;
56680;SDS011;42558;52.388;13.390;2022-07-29T02:39:27;11.78;;;5.89;;
56680;SDS011;42558;52.388;13.390;2022-07-29T02:42:00;16.53;;;5.70;;
56680;SDS011;42558;52.388;13.390;2022-07-29T02:44:30;12.35;;;6.65;;
56680;SDS011;42558;52.388;13.390;2022-07-29T02:47:17;14.63;;;6.08;;
56680;SDS011;42558;52.388;13.390;2022-07-29T02:50:00;15.58;;;6.46;;
56680;SDS011;42558;52.388;13.390;2022-07-29T02:52:56;18.62;;;6.84;;
56680;SDS011;42558;52.388;13.390;2022-07-29T02:55:42;11.59;;;6.08;;
56680;SDS011;42558;52.388;13.390;2022-07-29T03:01:12;10.83;;;5.51;;
56680;SDS011;42558;52.388;13.390;2022-07-29T03:03:48;12.54;;;5.89;;
56680;SDS011;42558;52.388;13.390;2022-07-29T03:06:19;14.44;;;6.84;;
56680;SDS011;42558;52.388;13.390;2022-07-29T03:09:03;11.78;;;6.27;;
56680;SDS011;42558;52.388;13.390;2022-07-29T03:11:39;15.39;;;6.27;;
56680;SDS011;42558;52.388;13.390;2022-07-29T03:14:18;11.78;;;5.89;;
56680;SDS011;42558;52.388;13.390;2022-07-29T03:16:47;11.21;;;5.89;;
56680;SDS011;42558;52.388;13.390;2022-07-29T03:19:16;13.11;;;6.27;;
56680;SDS011;42558;52.388;13.390;2022-07-29T03:21:44;14.06;;;6.08;;
56680;SDS011;42558;52.388;13.390;2022-07-29T03:24:24;15.58;;;6.27;;
56680;SDS011;42558;52.388;13.390;2022-07-29T03:26:56;13.30;;;5.89;;
56680;SDS011;42558;52.388;13.390;2022-07-29T03:29:24;15.58;;;6.46;;
56680;SDS011;42558;52.388;13.390;2022-07-29T03:32:01;10.64;;;6.46;;
56680;SDS011;42558;52.388;13.390;2022-07-29T03:34:34;11.97;;;6.08;;
56680;SDS011;42558;52.388;13.390;2022-07-29T03:37:03;12.35;;;6.27;;
56680;SDS011;42558;52.388;13.390;2022-07-29T03:39:36;22.23;;;7.03;;
56680;SDS011;42558;52.388;13.390;2022-07-29T03:42:08;17.29;;;6.65;;
56680;SDS011;42558;52.388;13.390;2022-07-29T03:44:43;15.39;;;6.27;;
56680;SDS011;42558;52.388;13.390;2022-07-29T03:47:13;10.45;;;5.89;;
56680;SDS011;42558;52.388;13.390;2022-07-29T03:49:42;13.87;;;6.08;;
56680;SDS011;42558;52.388;13.390;2022-07-29T03:52:11;13.68;;;6.08;;
56680;SDS011;42558;52.388;13.390;2022-07-29T03:54:38;15.96;;;5.89;;
56680;SDS011;42558;52.388;13.390;2022-07-29T03:57:05;13.49;;;6.46;;
56680;SDS011;42558;52.388;13.390;2022-07-29T03:59:35;16.53;;;5.51;;
56680;SDS011;42558;52.388;13.390;2022-07-29T04:02:05;13.11;;;5.89;;
56680;SDS011;42558;52.388;13.390;2022-07-29T04:04:35;16.91;;;7.03;;
56680;SDS011;42558;52.388;13.390;2022-07-29T04:07:03;13.30;;;6.08;;
56680;SDS011;42558;52.388;13.390;2022-07-29T04:09:31;14.25;;;6.46;;
56680;SDS011;42558;52.388;13.390;2022-07-29T04:11:59;11.59;;;6.46;;
56680;SDS011;42558;52.388;13.390;2022-07-29T04:14:31;12.54;;;6.08;;
56680;SDS011;42558;52.388;13.390;2022-07-29T04:17:00;13.87;;;6.08;;
56680;SDS011;42558;52.388;13.390;2022-07-29T04:19:28;13.68;;;5.89;;
56680;SDS011;42558;52.388;13.390;2022-07-29T04:21:56;14.25;;;6.65;;
56680;SDS011;42558;52.388;13.390;2022-07-29T04:24:24;17.67;;;6.46;;
56680;SDS011;42558;52.388;13.390;2022-07-29T04:26:50;9.88;;;5.32;;
56680;SDS011;42558;52.388;13.390;2022-07-29T04:29:17;10.26;;;5.32;;
56680;SDS011;42558;52.388;13.390;2022-07-29T04:31:44;15.20;;;5.70;;
56680;SDS011;42558;52.388;13.390;2022-07-29T04:34:11;12.35;;;6.27;;
56680;SDS011;42558;52.388;13.390;2022-07-29T04:36:39;13.11;;;6.84;;
56680;SDS011;42558;52.388;13.390;2022-07-29T04:39:06;12.73;;;6.08;;
56680;SDS011;42558;52.388;13.390;2022-07-29T04:41:32;13.68;;;6.27;;
56680;SDS011;42558;52.388;13.390;2022-07-29T04:44:00;12.16;;;5.70;;
56680;SDS011;42558;52.388;13.390;2022-07-29T04:46:38;12.54;;;6.27;;
56680;SDS011;42558;52.388;13.390;2022-07-29T04:49:05;13.68;;;6.27;;
56680;SDS011;42558;52.388;13.390;2022-07-29T04:51:32;14.82;;;5.89;;
56680;SDS011;42558;52.388;13.390;2022-07-29T04:53:59;13.49;;;6.65;;
56680;SDS011;42558;52.388;13.390;2022-07-29T04:56:26;13.11;;;6.08;;
56680;SDS011;42558;52.388;13.390;2022-07-29T04:58:54;11.59;;;6.46;;
56680;SDS011;42558;52.388;13.390;2022-07-29T05:01:21;11.21;;;5.89;;
56680;SDS011;42558;52.388;13.390;2022-07-29T05:03:48;12.73;;;5.51;;
56680;SDS011;42558;52.388;13.390;2022-07-29T05:06:14;14.63;;;6.46;;
56680;SDS011;42558;52.388;13.390;2022-07-29T05:08:41;13.68;;;5.51;;
56680;SDS011;42558;52.388;13.390;2022-07-29T05:11:08;12.73;;;6.08;;
56680;SDS011;42558;52.388;13.390;2022-07-29T05:13:39;12.92;;;5.70;;
56680;SDS011;42558;52.388;13.390;2022-07-29T05:16:13;14.06;;;6.08;;
56680;SDS011;42558;52.388;13.390;2022-07-29T05:18:41;12.35;;;5.51;;
56680;SDS011;42558;52.388;13.390;2022-07-29T05:21:08;12.54;;;6.08;;
56680;SDS011;42558;52.388;13.390;2022-07-29T05:23:35;13.87;;;5.89;;
56680;SDS011;42558;52.388;13.390;2022-07-29T05:26:02;13.30;;;5.70;;
56680;SDS011;42558;52.388;13.390;2022-07-29T05:28:33;12.92;;;5.89;;
56680;SDS011;42558;52.388;13.390;2022-07-29T05:31:01;15.01;;;6.08;;
56680;SDS011;42558;52.388;13.390;2022-07-29T05:33:28;10.45;;;5.70;;
56680;SDS011;42558;52.388;13.390;2022-07-29T05:36:04;12.16;;;5.89;;
56680;SDS011;42558;52.388;13.390;2022-07-29T05:38:37;12.73;;;5.89;;
56680;SDS011;42558;52.388;13.390;2022-07-29T05:41:06;10.64;;;5.89;;
56680;SDS011;42558;52.388;13.390;2022-07-29T05:43:33;10.64;;;5.70;;
56680;SDS011;42558;52.388;13.390;2022-07-29T05:46:00;15.58;;;6.08;;
56680;SDS011;42558;52.388;13.390;2022-07-29T05:48:27;18.24;;;6.65;;
56680;SDS011;42558;52.388;13.390;2022-07-29T05:50:54;11.40;;;5.32;;
56680;SDS011;42558;52.388;13.390;2022-07-29T05:53:22;12.16;;;5.89;;
56680;SDS011;42558;52.388;13.390;2022-07-29T05:55:49;14.06;;;5.51;;
56680;SDS011;42558;52.388;13.390;2022-07-29T05:58:17;10.26;;;4.94;;
56680;SDS011;42558;52.388;13.390;2022-07-29T06:00:44;12.92;;;5.32;;
56680;SDS011;42558;52.388;13.390;2022-07-29T06:03:11;16.91;;;5.51;;
56680;SDS011;42558;52.388;13.390;2022-07-29T06:05:38;11.40;;;5.32;;
56680;SDS011;42558;52.388;13.390;2022-07-29T06:08:05;10.26;;;4.94;;
56680;SDS011;42558;52.388;13.390;2022-07-29T06:10:37;11.59;;;5.13;;
56680;SDS011;42558;52.388;13.390;2022-07-29T06:13:04;14.06;;;5.89;;
56680;SDS011;42558;52.388;13.390;2022-07-29T06:15:31;10.45;;;5.32;;
56680;SDS011;42558;52.388;13.390;2022-07-29T06:17:58;9.31;;;4.75;;
56680;SDS011;42558;52.388;13.390;2022-07-29T06:20:28;12.16;;;5.13;;
56680;SDS011;42558;52.388;13.390;2022-07-29T06:22:57;13.49;;;5.89;;
56680;SDS011;42558;52.388;13.390;2022-07-29T06:25:24;10.07;;;4.94;;
56680;SDS011;42558;52.388;13.390;2022-07-29T06:27:52;10.26;;;4.75;;
56680;SDS011;42558;52.388;13.390;2022-07-29T06:30:19;14.25;;;5.51;;
56680;SDS011;42558;52.388;13.390;2022-07-29T06:32:46;13.49;;;5.89;;
56680;SDS011;42558;52.388;13.390;2022-07-29T06:35:13;17.10;;;4.94;;
56680;SDS011;42558;52.388;13.390;2022-07-29T06:38:03;13.30;;;4.94;;
56680;SDS011;42558;52.388;13.390;2022-07-29T06:40:50;11.02;;;5.32;;
56680;SDS011;42558;52.388;13.390;2022-07-29T06:43:35;12.16;;;4.37;;
56680;SDS011;42558;52.388;13.390;2022-07-29T06:46:21;11.40;;;4.94;;
56680;SDS011;42558;52.388;13.390;2022-07-29T06:48:49;9.50;;;3.99;;
56680;SDS011;42558;52.388;13.390;2022-07-29T06:51:17;12.73;;;4.94;;
56680;SDS011;42558;52.388;13.390;2022-07-29T06:53:52;12.73;;;5.13;;
56680;SDS011;42558;52.388;13.390;2022-07-29T06:56:26;12.92;;;5.13;;
56680;SDS011;42558;52.388;13.390;2022-07-29T06:58:53;9.50;;;4.37;;
56680;SDS011;42558;52.388;13.390;2022-07-29T07:01:19;14.06;;;5.32;;
56680;SDS011;42558;52.388;13.390;2022-07-29T07:03:47;16.34;;;5.89;;
56680;SDS011;42558;52.388;13.390;2022-07-29T07:06:14;15.96;;;5.13;;
56680;SDS011;42558;52.388;13.390;2022-07-29T07:08:40;11.59;;;4.94;;
56680;SDS011;42558;52.388;13.390;2022-07-29T07:11:08;11.97;;;5.32;;
56680;SDS011;42558;52.388;13.390;2022-07-29T07:13:35;15.77;;;5.89;;
56680;SDS011;42558;52.388;13.390;2022-07-29T07:16:03;12.35;;;4.94;;
56680;SDS011;42558;52.388;13.390;2022-07-29T07:18:30;11.21;;;5.13;;
56680;SDS011;42558;52.388;13.390;2022-07-29T07:20:57;11.78;;;5.51;;
56680;SDS011;42558;52.388;13.390;2022-07-29T07:23:24;11.40;;;4.94;;
56680;SDS011;42558;52.388;13.390;2022-07-29T07:25:51;9.31;;;4.75;;
56680;SDS011;42558;52.388;13.390;2022-07-29T07:28:19;10.26;;;4.37;;
56680;SDS011;42558;52.388;13.390;2022-07-29T07:30:51;8.55;;;4.37;;
56680;SDS011;42558;52.388;13.390;2022-07-29T07:33:19;13.11;;;4.75;;
56680;SDS011;42558;52.388;13.390;2022-07-29T07:35:46;11.40;;;4.56;;
56680;SDS011;42558;52.388;13.390;2022-07-29T07:38:13;9.69;;;4.37;;
56680;SDS011;42558;52.388;13.390;2022-07-29T07:40:40;12.73;;;4.94;;
56680;SDS011;42558;52.388;13.390;2022-07-29T07:43:08;11.21;;;4.56;;
56680;SDS011;42558;52.388;13.390;2022-07-29T07:45:35;10.64;;;4.56;;
56680;SDS011;42558;52.388;13.390;2022-07-29T07:48:04;10.64;;;4.37;;
56680;SDS011;42558;52.388;13.390;2022-07-29T07:50:31;7.98;;;4.18;;
56680;SDS011;42558;52.388;13.390;2022-07-29T07:52:59;8.36;;;4.18;;
56680;SDS011;42558;52.388;13.390;2022-07-29T07:55:28;11.21;;;4.37;;
56680;SDS011;42558;52.388;13.390;2022-07-29T07:58:14;12.35;;;4.18;;
56680;SDS011;42558;52.388;13.390;2022-07-29T08:00:41;9.31;;;4.56;;
56680;SDS011;42558;52.388;13.390;2022-07-29T08:03:08;9.12;;;3.99;;
56680;SDS011;42558;52.388;13.390;2022-07-29T08:05:43;8.74;;;3.61;;
56680;SDS011;42558;52.388;13.390;2022-07-29T08:08:10;12.35;;;4.18;;
56680;SDS011;42558;52.388;13.390;2022-07-29T08:10:37;13.30;;;4.56;;
56680;SDS011;42558;52.388;13.390;2022-07-29T08:13:20;10.45;;;4.37;;
56680;SDS011;42558;52.388;13.390;2022-07-29T08:15:49;12.35;;;4.18;;
56680;SDS011;42558;52.388;13.390;2022-07-29T08:18:28;8.74;;;3.99;;
56680;SDS011;42558;52.388;13.390;2022-07-29T08:20:57;10.83;;;5.32;;
56680;SDS011;42558;52.388;13.390;2022-07-29T08:23:25;8.74;;;3.42;;
56680;SDS011;42558;52.388;13.390;2022-07-29T08:26:13;10.26;;;4.37;;
56680;SDS011;42558;52.388;13.390;2022-07-29T08:28:42;14.25;;;4.37;;
56680;SDS011;42558;52.388;13.390;2022-07-29T08:31:16;10.64;;;4.18;;
56680;SDS011;42558;52.388;13.390;2022-07-29T08:33:44;11.78;;;4.56;;
56680;SDS011;42558;52.388;13.390;2022-07-29T08:36:11;11.40;;;4.18;;
56680;SDS011;42558;52.388;13.390;2022-07-29T08:38:39;10.45;;;3.61;;
56680;SDS011;42558;52.388;13.390;2022-07-29T08:41:06;19.00;;;4.75;;
56680;SDS011;42558;52.388;13.390;2022-07-29T08:43:33;8.36;;;3.80;;
56680;SDS011;42558;52.388;13.390;2022-07-29T08:46:04;11.21;;;4.56;;
56680;SDS011;42558;52.388;13.390;2022-07-29T08:48:31;12.16;;;4.37;;
56680;SDS011;42558;52.388;13.390;2022-07-29T08:51:00;9.50;;;3.80;;
56680;SDS011;42558;52.388;13.390;2022-07-29T08:53:30;11.78;;;7.03;;
56680;SDS011;42558;52.388;13.390;2022-07-29T08:55:58;15.01;;;4.37;;
56680;SDS011;42558;52.388;13.390;2022-07-29T08:58:27;10.64;;;4.18;;
56680;SDS011;42558;52.388;13.390;2022-07-29T09:01:03;14.06;;;4.75;;
56680;SDS011;42558;52.388;13.390;2022-07-29T09:03:35;11.21;;;3.80;;
56680;SDS011;42558;52.388;13.390;2022-07-29T09:06:04;12.35;;;4.56;;
56680;SDS011;42558;52.388;13.390;2022-07-29T09:08:32;9.88;;;3.42;;
56680;SDS011;42558;52.388;13.390;2022-07-29T09:11:03;11.40;;;3.80;;
56680;SDS011;42558;52.388;13.390;2022-07-29T09:13:31;9.31;;;3.80;;
56680;SDS011;42558;52.388;13.390;2022-07-29T09:15:58;10.83;;;3.99;;
56680;SDS011;42558;52.388;13.390;2022-07-29T09:18:39;7.41;;;3.99;;
56680;SDS011;42558;52.388;13.390;2022-07-29T09:21:16;10.26;;;4.18;;
56680;SDS011;42558;52.388;13.390;2022-07-29T09:24:08;11.21;;;3.80;;
56680;SDS011;42558;52.388;13.390;2022-07-29T09:26:41;7.03;;;3.99;;
56680;SDS011;42558;52.388;13.390;2022-07-29T09:29:13;11.02;;;3.80;;
56680;SDS011;42558;52.388;13.390;2022-07-29T09:31:51;11.59;;;3.80;;
56680;SDS011;42558;52.388;13.390;2022-07-29T09:34:25;9.12;;;3.80;;
56680;SDS011;42558;52.388;13.390;2022-07-29T09:36:55;11.78;;;3.80;;
56680;SDS011;42558;52.388;13.390;2022-07-29T09:42:01;8.93;;;3.23;;
56680;SDS011;42558;52.388;13.390;2022-07-29T09:44:46;11.02;;;3.80;;
56680;SDS011;42558;52.388;13.390;2022-07-29T09:47:16;8.74;;;3.80;;
56680;SDS011;42558;52.388;13.390;2022-07-29T09:49:58;10.64;;;3.61;;
56680;SDS011;42558;52.388;13.390;2022-07-29T09:52:29;13.11;;;3.99;;
56680;SDS011;42558;52.388;13.390;2022-07-29T09:55:07;8.17;;;3.42;;
56680;SDS011;42558;52.388;13.390;2022-07-29T09:57:39;10.64;;;3.80;;
56680;SDS011;42558;52.388;13.390;2022-07-29T10:00:12;7.79;;;3.80;;
56680;SDS011;42558;52.388;13.390;2022-07-29T10:02:43;8.74;;;3.80;;
56680;SDS011;42558;52.388;13.390;2022-07-29T10:05:25;8.36;;;3.80;;
56680;SDS011;42558;52.388;13.390;2022-07-29T10:08:02;10.64;;;3.80;;
56680;SDS011;42558;52.388;13.390;2022-07-29T10:10:35;9.12;;;3.99;;
56680;SDS011;42558;52.388;13.390;2022-07-29T10:13:06;9.69;;;3.80;;
56680;SDS011;42558;52.388;13.390;2022-07-29T10:15:44;8.55;;;3.80;;
56680;SDS011;42558;52.388;13.390;2022-07-29T10:18:13;11.21;;;3.80;;
56680;SDS011;42558;52.388;13.390;2022-07-29T10:20:44;9.88;;;3.61;;
56680;SDS011;42558;52.388;13.390;2022-07-29T10:23:11;9.31;;;3.80;;
56680;SDS011;42558;52.388;13.390;2022-07-29T10:25:39;9.31;;;3.80;;
56680;SDS011;42558;52.388;13.390;2022-07-29T10:28:12;9.69;;;3.80;;
56680;SDS011;42558;52.388;13.390;2022-07-29T10:30:43;10.07;;;3.80;;
56680;SDS011;42558;52.388;13.390;2022-07-29T10:42:21;9.31;;;3.99;;
56680;SDS011;42558;52.388;13.390;2022-07-29T10:45:00;7.79;;;3.61;;
56680;SDS011;42558;52.388;13.390;2022-07-29T10:47:30;13.49;;;4.18;;
56680;SDS011;42558;52.388;13.390;2022-07-29T10:50:05;9.50;;;4.18;;
56680;SDS011;42558;52.388;13.390;2022-07-29T10:52:52;10.26;;;4.37;;
56680;SDS011;42558;52.388;13.390;2022-07-29T10:55:38;12.54;;;4.37;;
56680;SDS011;42558;52.388;13.390;2022-07-29T10:58:20;10.64;;;3.80;;
56680;SDS011;42558;52.388;13.390;2022-07-29T11:00:51;9.50;;;4.37;;
56680;SDS011;42558;52.388;13.390;2022-07-29T11:06:15;8.17;;;4.18;;
56680;SDS011;42558;52.388;13.390;2022-07-29T11:08:43;11.97;;;4.37;;
56680;SDS011;42558;52.388;13.390;2022-07-29T11:13:52;9.50;;;3.99;;
56680;SDS011;42558;52.388;13.390;2022-07-29T11:16:23;11.02;;;4.75;;
56680;SDS011;42558;52.388;13.390;2022-07-29T11:21:55;14.44;;;5.70;;
56680;SDS011;42558;52.388;13.390;2022-07-29T11:27:08;9.69;;;4.94;;
56680;SDS011;42558;52.388;13.390;2022-07-29T11:29:53;12.35;;;5.13;;
56680;SDS011;42558;52.388;13.390;2022-07-29T11:32:37;9.88;;;4.94;;
56680;SDS011;42558;52.388;13.390;2022-07-29T11:35:15;9.50;;;5.13;;
56680;SDS011;42558;52.388;13.390;2022-07-29T11:38:24;9.69;;;5.70;;
56680;SDS011;42558;52.388;13.390;2022-07-29T11:41:26;15.01;;;4.94;;
56680;SDS011;42558;52.388;13.390;2022-07-29T11:43:59;9.31;;;5.32;;
56680;SDS011;42558;52.388;13.390;2022-07-29T11:46:59;9.12;;;5.51;;
56680;SDS011;42558;52.388;13.390;2022-07-29T11:49:27;10.64;;;5.13;;
56680;SDS011;42558;52.388;13.390;2022-07-29T11:51:59;9.31;;;5.70;;
56680;SDS011;42558;52.388;13.390;2022-07-29T11:54:31;12.54;;;5.32;;
56680;SDS011;42558;52.388;13.390;2022-07-29T11:57:20;9.69;;;5.13;;
56680;SDS011;42558;52.388;13.390;2022-07-29T11:59:47;9.88;;;5.51;;
56680;SDS011;42558;52.388;13.390;2022-07-29T12:02:16;9.50;;;5.51;;
56680;SDS011;42558;52.388;13.390;2022-07-29T12:05:03;20.52;;;6.08;;
56680;SDS011;42558;52.388;13.390;2022-07-29T12:07:37;9.69;;;5.51;;
56680;SDS011;42558;52.388;13.390;2022-07-29T12:10:10;11.02;;;4.94;;
56680;SDS011;42558;52.388;13.390;2022-07-29T12:12:55;11.97;;;5.51;;
56680;SDS011;42558;52.388;13.390;2022-07-29T12:15:22;8.74;;;4.94;;
56680;SDS011;42558;52.388;13.390;2022-07-29T12:18:19;12.35;;;4.94;;
56680;SDS011;42558;52.388;13.390;2022-07-29T12:20:57;13.68;;;5.32;;
56680;SDS011;42558;52.388;13.390;2022-07-29T12:23:32;8.17;;;4.75;;
56680;SDS011;42558;52.388;13.390;2022-07-29T12:26:04;11.21;;;4.94;;
56680;SDS011;42558;52.388;13.390;2022-07-29T12:28:37;13.30;;;5.51;;
56680;SDS011;42558;52.388;13.390;2022-07-29T12:31:05;8.17;;;5.51;;
56680;SDS011;42558;52.388;13.390;2022-07-29T12:33:39;10.26;;;4.75;;
56680;SDS011;42558;52.388;13.390;2022-07-29T12:36:07;11.21;;;5.32;;
56680;SDS011;42558;52.388;13.390;2022-07-29T12:38:43;11.02;;;5.89;;
56680;SDS011;42558;52.388;13.390;2022-07-29T12:41:10;9.69;;;5.51;;
56680;SDS011;42558;52.388;13.390;2022-07-29T12:43:52;11.40;;;5.51;;
56680;SDS011;42558;52.388;13.390;2022-07-29T12:46:20;10.64;;;5.51;;
56680;SDS011;42558;52.388;13.390;2022-07-29T12:48:52;11.78;;;6.27;;
56680;SDS011;42558;52.388;13.390;2022-07-29T12:51:36;12.35;;;5.70;;
56680;SDS011;42558;52.388;13.390;2022-07-29T12:54:10;9.31;;;5.89;;
56680;SDS011;42558;52.388;13.390;2022-07-29T12:56:41;9.12;;;5.32;;
56680;SDS011;42558;52.388;13.390;2022-07-29T12:59:18;9.50;;;5.32;;
56680;SDS011;42558;52.388;13.390;2022-07-29T13:01:49;12.16;;;5.70;;
56680;SDS011;42558;52.388;13.390;2022-07-29T13:04:29;9.12;;;5.13;;
56680;SDS011;42558;52.388;13.390;2022-07-29T13:07:07;8.74;;;5.51;;
56680;SDS011;42558;52.388;13.390;2022-07-29T13:09:45;13.30;;;6.27;;
56680;SDS011;42558;52.388;13.390;2022-07-29T13:12:14;8.36;;;5.32;;
56680;SDS011;42558;52.388;13.390;2022-07-29T13:14:47;8.36;;;5.32;;
56680;SDS011;42558;52.388;13.390;2022-07-29T13:19:48;9.31;;;6.08;;
56680;SDS011;42558;52.388;13.390;2022-07-29T13:22:20;8.17;;;4.75;;
56680;SDS011;42558;52.388;13.390;2022-07-29T13:24:57;10.26;;;5.51;;
56680;SDS011;42558;52.388;13.390;2022-07-29T13:27:30;10.83;;;5.32;;
56680;SDS011;42558;52.388;13.390;2022-07-29T13:29:59;8.74;;;4.75;;
56680;SDS011;42558;52.388;13.390;2022-07-29T13:32:28;11.02;;;6.08;;
56680;SDS011;42558;52.388;13.390;2022-07-29T13:34:59;15.58;;;5.89;;
56680;SDS011;42558;52.388;13.390;2022-07-29T13:37:32;9.88;;;5.32;;
56680;SDS011;42558;52.388;13.390;2022-07-29T13:40:02;11.02;;;5.70;;
56680;SDS011;42558;52.388;13.390;2022-07-29T13:42:31;11.59;;;5.70;;
56680;SDS011;42558;52.388;13.390;2022-07-29T13:44:59;11.59;;;5.32;;
56680;SDS011;42558;52.388;13.390;2022-07-29T13:47:27;7.60;;;4.94;;
56680;SDS011;42558;52.388;13.390;2022-07-29T13:50:00;8.55;;;5.51;;
56680;SDS011;42558;52.388;13.390;2022-07-29T13:52:27;9.88;;;4.94;;
56680;SDS011;42558;52.388;13.390;2022-07-29T13:54:55;9.31;;;4.94;;
56680;SDS011;42558;52.388;13.390;2022-07-29T13:57:22;9.50;;;4.75;;
56680;SDS011;42558;52.388;13.390;2022-07-29T13:59:49;12.16;;;5.70;;
56680;SDS011;42558;52.388;13.390;2022-07-29T14:02:20;8.17;;;5.13;;
56680;SDS011;42558;52.388;13.390;2022-07-29T14:04:53;8.17;;;5.13;;
56680;SDS011;42558;52.388;13.390;2022-07-29T14:07:21;10.83;;;5.70;;
56680;SDS011;42558;52.388;13.390;2022-07-29T14:09:48;13.11;;;5.70;;
56680;SDS011;42558;52.388;13.390;2022-07-29T14:12:16;9.69;;;5.51;;
56680;SDS011;42558;52.388;13.390;2022-07-29T14:14:44;9.69;;;5.13;;
56680;SDS011;42558;52.388;13.390;2022-07-29T14:17:13;8.36;;;4.94;;
56680;SDS011;42558;52.388;13.390;2022-07-29T14:19:41;10.26;;;4.94;;
56680;SDS011;42558;52.388;13.390;2022-07-29T14:22:08;7.98;;;5.13;;
56680;SDS011;42558;52.388;13.390;2022-07-29T14:24:36;7.41;;;4.75;;
56680;SDS011;42558;52.388;13.390;2022-07-29T14:27:05;8.55;;;4.94;;
56680;SDS011;42558;52.388;13.390;2022-07-29T14:29:33;9.50;;;5.13;;
56680;SDS011;42558;52.388;13.390;2022-07-29T14:32:05;12.16;;;4.94;;
56680;SDS011;42558;52.388;13.390;2022-07-29T14:34:37;11.21;;;5.70;;
56680;SDS011;42558;52.388;13.390;2022-07-29T14:37:05;9.69;;;5.51;;
56680;SDS011;42558;52.388;13.390;2022-07-29T14:39:34;12.73;;;4.94;;
56680;SDS011;42558;52.388;13.390;2022-07-29T14:42:10;8.36;;;5.32;;
56680;SDS011;42558;52.388;13.390;2022-07-29T14:44:40;8.55;;;4.94;;
56680;SDS011;42558;52.388;13.390;2022-07-29T14:47:08;7.79;;;5.32;;
56680;SDS011;42558;52.388;13.390;2022-07-29T14:49:35;9.31;;;4.94;;
56680;SDS011;42558;52.388;13.390;2022-07-29T14:52:03;7.79;;;5.13;;
56680;SDS011;42558;52.388;13.390;2022-07-29T14:54:30;12.16;;;5.13;;
56680;SDS011;42558;52.388;13.390;2022-07-29T14:56:57;9.12;;;5.32;;
56680;SDS011;42558;52.388;13.390;2022-07-29T14:59:25;10.26;;;5.13;;
56680;SDS011;42558;52.388;13.390;2022-07-29T15:01:53;10.83;;;5.70;;
56680;SDS011;42558;52.388;13.390;2022-07-29T15:04:20;12.16;;;5.51;;
56680;SDS011;42558;52.388;13.390;2022-07-29T15:06:47;9.12;;;5.51;;
56680;SDS011;42558;52.388;13.390;2022-07-29T15:09:14;9.69;;;5.13;;
56680;SDS011;42558;52.388;13.390;2022-07-29T15:11:41;11.21;;;5.89;;
56680;SDS011;42558;52.388;13.390;2022-07-29T15:14:08;11.40;;;5.51;;
56680;SDS011;42558;52.388;13.390;2022-07-29T15:16:36;8.74;;;4.94;;
56680;SDS011;42558;52.388;13.390;2022-07-29T15:19:09;9.50;;;5.51;;
56680;SDS011;42558;52.388;13.390;2022-07-29T15:21:37;9.69;;;5.70;;
56680;SDS011;42558;52.388;13.390;2022-07-29T15:24:18;11.21;;;5.89;;
56680;SDS011;42558;52.388;13.390;2022-07-29T15:26:46;7.60;;;4.94;;
56680;SDS011;42558;52.388;13.390;2022-07-29T15:29:13;9.12;;;5.32;;
56680;SDS011;42558;52.388;13.390;2022-07-29T15:31:41;9.12;;;4.94;;
56680;SDS011;42558;52.388;13.390;2022-07-29T15:34:09;9.12;;;5.51;;
56680;SDS011;42558;52.388;13.390;2022-07-29T15:36:36;8.93;;;5.89;;